sensor_id;sensor_type;location;lat;lon;timestamp;P1;durP1;ratioP1;P2;durP2;ratioP2
68188;SDS011;66299;47.514;19.218;2023-11-21T00:00:33;60.80;;;37.95;;
68188;SDS011;66299;47.514;19.218;2023-11-21T00:03:06;59.30;;;39.93;;
68188;SDS011;66299;47.514;19.218;2023-11-21T00:05:34;61.80;;;41.28;;
68188;SDS011;66299;47.514;19.218;2023-11-21T00:08:04;64.00;;;42.22;;
68188;SDS011;66299;47.514;19.218;2023-11-21T00:10:33;68.85;;;44.63;;
68188;SDS011;66299;47.514;19.218;2023-11-21T00:13:02;62.17;;;42.03;;
68188;SDS011;66299;47.514;19.218;2023-11-21T00:15:30;65.10;;;42.95;;
68188;SDS011;66299;47.514;19.218;2023-11-21T00:17:59;68.63;;;44.13;;
68188;SDS011;66299;47.514;19.218;2023-11-21T00:20:30;72.15;;;45.53;;
68188;SDS011;66299;47.514;19.218;2023-11-21T00:22:58;74.63;;;48.22;;
68188;SDS011;66299;47.514;19.218;2023-11-21T00:25:29;75.35;;;46.00;;
68188;SDS011;66299;47.514;19.218;2023-11-21T00:28:00;70.03;;;44.55;;
68188;SDS011;66299;47.514;19.218;2023-11-21T00:30:30;66.97;;;42.88;;
68188;SDS011;66299;47.514;19.218;2023-11-21T00:33:00;61.55;;;39.72;;
68188;SDS011;66299;47.514;19.218;2023-11-21T00:35:30;59.65;;;39.67;;
68188;SDS011;66299;47.514;19.218;2023-11-21T00:37:58;58.88;;;38.83;;
68188;SDS011;66299;47.514;19.218;2023-11-21T00:40:27;61.33;;;40.55;;
68188;SDS011;66299;47.514;19.218;2023-11-21T00:42:56;64.30;;;41.28;;
68188;SDS011;66299;47.514;19.218;2023-11-21T00:45:25;64.43;;;41.17;;
68188;SDS011;66299;47.514;19.218;2023-11-21T00:47:54;68.28;;;42.50;;
68188;SDS011;66299;47.514;19.218;2023-11-21T00:50:25;64.78;;;41.60;;
68188;SDS011;66299;47.514;19.218;2023-11-21T00:52:56;65.88;;;41.25;;
68188;SDS011;66299;47.514;19.218;2023-11-21T00:55:25;59.70;;;40.53;;
68188;SDS011;66299;47.514;19.218;2023-11-21T00:57:56;62.88;;;39.50;;
68188;SDS011;66299;47.514;19.218;2023-11-21T01:00:25;61.83;;;39.53;;
68188;SDS011;66299;47.514;19.218;2023-11-21T01:02:53;62.90;;;39.38;;
68188;SDS011;66299;47.514;19.218;2023-11-21T01:05:26;65.60;;;39.88;;
68188;SDS011;66299;47.514;19.218;2023-11-21T01:07:59;63.67;;;40.58;;
68188;SDS011;66299;47.514;19.218;2023-11-21T01:10:27;65.45;;;41.47;;
68188;SDS011;66299;47.514;19.218;2023-11-21T01:12:57;67.13;;;42.83;;
68188;SDS011;66299;47.514;19.218;2023-11-21T01:15:27;70.72;;;43.92;;
68188;SDS011;66299;47.514;19.218;2023-11-21T01:17:56;69.22;;;43.00;;
68188;SDS011;66299;47.514;19.218;2023-11-21T01:20:24;64.75;;;39.97;;
68188;SDS011;66299;47.514;19.218;2023-11-21T01:22:53;59.13;;;38.70;;
68188;SDS011;66299;47.514;19.218;2023-11-21T01:25:23;64.25;;;42.38;;
68188;SDS011;66299;47.514;19.218;2023-11-21T01:27:53;66.93;;;42.03;;
68188;SDS011;66299;47.514;19.218;2023-11-21T01:30:24;66.60;;;41.40;;
68188;SDS011;66299;47.514;19.218;2023-11-21T01:32:53;61.08;;;41.00;;
68188;SDS011;66299;47.514;19.218;2023-11-21T01:35:24;62.33;;;40.22;;
68188;SDS011;66299;47.514;19.218;2023-11-21T01:37:55;58.88;;;39.00;;
68188;SDS011;66299;47.514;19.218;2023-11-21T01:40:25;59.80;;;39.15;;
68188;SDS011;66299;47.514;19.218;2023-11-21T01:42:53;61.63;;;40.05;;
68188;SDS011;66299;47.514;19.218;2023-11-21T01:45:24;57.38;;;39.20;;
68188;SDS011;66299;47.514;19.218;2023-11-21T01:47:52;58.83;;;38.70;;
68188;SDS011;66299;47.514;19.218;2023-11-21T01:50:23;59.78;;;38.45;;
68188;SDS011;66299;47.514;19.218;2023-11-21T01:52:52;61.78;;;38.33;;
68188;SDS011;66299;47.514;19.218;2023-11-21T01:55:25;63.05;;;39.20;;
68188;SDS011;66299;47.514;19.218;2023-11-21T01:57:55;63.38;;;40.63;;
68188;SDS011;66299;47.514;19.218;2023-11-21T02:00:24;66.22;;;42.03;;
68188;SDS011;66299;47.514;19.218;2023-11-21T02:02:55;76.45;;;46.40;;
68188;SDS011;66299;47.514;19.218;2023-11-21T02:05:24;74.22;;;47.40;;
68188;SDS011;66299;47.514;19.218;2023-11-21T02:07:53;73.53;;;47.53;;
68188;SDS011;66299;47.514;19.218;2023-11-21T02:10:23;74.15;;;47.83;;
68188;SDS011;66299;47.514;19.218;2023-11-21T02:12:54;72.95;;;47.75;;
68188;SDS011;66299;47.514;19.218;2023-11-21T02:15:25;73.20;;;48.20;;
68188;SDS011;66299;47.514;19.218;2023-11-21T02:17:55;66.63;;;45.35;;
68188;SDS011;66299;47.514;19.218;2023-11-21T02:20:26;76.68;;;45.58;;
68188;SDS011;66299;47.514;19.218;2023-11-21T02:22:58;68.25;;;46.45;;
68188;SDS011;66299;47.514;19.218;2023-11-21T02:25:28;76.22;;;48.38;;
68188;SDS011;66299;47.514;19.218;2023-11-21T02:27:59;72.45;;;47.65;;
68188;SDS011;66299;47.514;19.218;2023-11-21T02:30:29;70.05;;;46.35;;
68188;SDS011;66299;47.514;19.218;2023-11-21T02:32:59;66.47;;;46.63;;
68188;SDS011;66299;47.514;19.218;2023-11-21T02:35:29;73.53;;;48.13;;
68188;SDS011;66299;47.514;19.218;2023-11-21T02:38:02;71.43;;;46.35;;
68188;SDS011;66299;47.514;19.218;2023-11-21T02:40:33;72.28;;;45.95;;
68188;SDS011;66299;47.514;19.218;2023-11-21T02:43:02;69.18;;;46.22;;
68188;SDS011;66299;47.514;19.218;2023-11-21T02:45:32;72.05;;;46.80;;
68188;SDS011;66299;47.514;19.218;2023-11-21T02:48:01;66.20;;;43.95;;
68188;SDS011;66299;47.514;19.218;2023-11-21T02:50:30;66.82;;;45.22;;
68188;SDS011;66299;47.514;19.218;2023-11-21T02:53:02;64.70;;;44.30;;
68188;SDS011;66299;47.514;19.218;2023-11-21T02:55:32;62.03;;;41.22;;
68188;SDS011;66299;47.514;19.218;2023-11-21T02:58:02;62.38;;;42.03;;
68188;SDS011;66299;47.514;19.218;2023-11-21T03:00:33;64.50;;;42.10;;
68188;SDS011;66299;47.514;19.218;2023-11-21T03:03:01;59.55;;;41.30;;
68188;SDS011;66299;47.514;19.218;2023-11-21T03:05:31;61.95;;;41.08;;
68188;SDS011;66299;47.514;19.218;2023-11-21T03:08:03;63.90;;;42.63;;
68188;SDS011;66299;47.514;19.218;2023-11-21T03:10:36;65.57;;;40.60;;
68188;SDS011;66299;47.514;19.218;2023-11-21T03:13:06;59.53;;;39.88;;
68188;SDS011;66299;47.514;19.218;2023-11-21T03:15:35;62.88;;;42.38;;
68188;SDS011;66299;47.514;19.218;2023-11-21T03:18:05;66.13;;;41.90;;
68188;SDS011;66299;47.514;19.218;2023-11-21T03:20:34;66.57;;;42.67;;
68188;SDS011;66299;47.514;19.218;2023-11-21T03:23:05;59.80;;;41.55;;
68188;SDS011;66299;47.514;19.218;2023-11-21T03:25:36;59.35;;;39.88;;
68188;SDS011;66299;47.514;19.218;2023-11-21T03:28:04;60.67;;;40.28;;
68188;SDS011;66299;47.514;19.218;2023-11-21T03:30:35;60.25;;;38.97;;
68188;SDS011;66299;47.514;19.218;2023-11-21T03:33:04;59.13;;;37.30;;
68188;SDS011;66299;47.514;19.218;2023-11-21T03:35:35;57.97;;;37.30;;
68188;SDS011;66299;47.514;19.218;2023-11-21T03:38:05;55.50;;;37.05;;
68188;SDS011;66299;47.514;19.218;2023-11-21T03:40:34;56.05;;;37.03;;
68188;SDS011;66299;47.514;19.218;2023-11-21T03:43:03;55.83;;;36.60;;
68188;SDS011;66299;47.514;19.218;2023-11-21T03:45:31;58.13;;;38.22;;
68188;SDS011;66299;47.514;19.218;2023-11-21T03:48:00;63.38;;;40.72;;
68188;SDS011;66299;47.514;19.218;2023-11-21T03:50:31;67.18;;;41.35;;
68188;SDS011;66299;47.514;19.218;2023-11-21T03:52:59;60.35;;;41.03;;
68188;SDS011;66299;47.514;19.218;2023-11-21T03:55:29;62.38;;;38.97;;
68188;SDS011;66299;47.514;19.218;2023-11-21T03:57:58;56.22;;;37.42;;
68188;SDS011;66299;47.514;19.218;2023-11-21T04:00:27;60.10;;;38.40;;
68188;SDS011;66299;47.514;19.218;2023-11-21T04:02:56;55.55;;;36.72;;
68188;SDS011;66299;47.514;19.218;2023-11-21T04:05:26;56.38;;;37.08;;
68188;SDS011;66299;47.514;19.218;2023-11-21T04:07:55;56.28;;;36.33;;
68188;SDS011;66299;47.514;19.218;2023-11-21T04:10:24;51.90;;;35.75;;
68188;SDS011;66299;47.514;19.218;2023-11-21T04:12:56;55.85;;;35.90;;
68188;SDS011;66299;47.514;19.218;2023-11-21T04:15:27;57.88;;;36.70;;
68188;SDS011;66299;47.514;19.218;2023-11-21T04:17:56;54.35;;;35.55;;
68188;SDS011;66299;47.514;19.218;2023-11-21T04:20:24;52.00;;;34.85;;
68188;SDS011;66299;47.514;19.218;2023-11-21T04:22:53;55.00;;;35.35;;
68188;SDS011;66299;47.514;19.218;2023-11-21T04:25:22;55.88;;;35.10;;
68188;SDS011;66299;47.514;19.218;2023-11-21T04:27:51;53.65;;;34.80;;
68188;SDS011;66299;47.514;19.218;2023-11-21T04:30:24;59.78;;;35.13;;
68188;SDS011;66299;47.514;19.218;2023-11-21T04:32:54;61.45;;;38.08;;
68188;SDS011;66299;47.514;19.218;2023-11-21T04:35:24;58.58;;;40.05;;
68188;SDS011;66299;47.514;19.218;2023-11-21T04:37:52;64.72;;;41.03;;
68188;SDS011;66299;47.514;19.218;2023-11-21T04:40:21;65.85;;;41.15;;
68188;SDS011;66299;47.514;19.218;2023-11-21T04:42:50;62.83;;;40.13;;
68188;SDS011;66299;47.514;19.218;2023-11-21T04:45:18;62.78;;;37.45;;
68188;SDS011;66299;47.514;19.218;2023-11-21T04:47:49;59.55;;;38.85;;
68188;SDS011;66299;47.514;19.218;2023-11-21T04:50:18;57.45;;;37.40;;
68188;SDS011;66299;47.514;19.218;2023-11-21T04:52:47;59.67;;;37.75;;
68188;SDS011;66299;47.514;19.218;2023-11-21T04:55:16;63.00;;;40.55;;
68188;SDS011;66299;47.514;19.218;2023-11-21T04:57:46;58.30;;;38.53;;
68188;SDS011;66299;47.514;19.218;2023-11-21T05:00:17;59.70;;;38.47;;
68188;SDS011;66299;47.514;19.218;2023-11-21T05:02:49;60.33;;;38.67;;
68188;SDS011;66299;47.514;19.218;2023-11-21T05:05:17;63.83;;;40.15;;
68188;SDS011;66299;47.514;19.218;2023-11-21T05:07:47;62.17;;;39.53;;
68188;SDS011;66299;47.514;19.218;2023-11-21T05:10:16;59.42;;;38.20;;
68188;SDS011;66299;47.514;19.218;2023-11-21T05:12:44;61.25;;;38.67;;
68188;SDS011;66299;47.514;19.218;2023-11-21T05:15:14;61.55;;;39.20;;
68188;SDS011;66299;47.514;19.218;2023-11-21T05:17:44;60.80;;;38.63;;
68188;SDS011;66299;47.514;19.218;2023-11-21T05:20:20;57.15;;;37.92;;
68188;SDS011;66299;47.514;19.218;2023-11-21T05:22:50;58.03;;;37.65;;
68188;SDS011;66299;47.514;19.218;2023-11-21T05:25:19;59.30;;;39.50;;
68188;SDS011;66299;47.514;19.218;2023-11-21T05:27:51;67.43;;;39.85;;
68188;SDS011;66299;47.514;19.218;2023-11-21T05:32:53;56.78;;;38.63;;
68188;SDS011;66299;47.514;19.218;2023-11-21T05:35:25;59.22;;;38.75;;
68188;SDS011;66299;47.514;19.218;2023-11-21T05:37:54;58.87;;;37.13;;
68188;SDS011;66299;47.514;19.218;2023-11-21T05:40:23;59.38;;;37.50;;
68188;SDS011;66299;47.514;19.218;2023-11-21T05:42:53;59.33;;;36.60;;
68188;SDS011;66299;47.514;19.218;2023-11-21T05:45:22;55.25;;;36.67;;
68188;SDS011;66299;47.514;19.218;2023-11-21T05:47:51;51.75;;;34.17;;
68188;SDS011;66299;47.514;19.218;2023-11-21T05:50:20;51.40;;;33.70;;
68188;SDS011;66299;47.514;19.218;2023-11-21T05:52:50;51.80;;;33.72;;
68188;SDS011;66299;47.514;19.218;2023-11-21T05:55:19;49.13;;;32.47;;
68188;SDS011;66299;47.514;19.218;2023-11-21T05:57:51;53.22;;;31.55;;
68188;SDS011;66299;47.514;19.218;2023-11-21T06:00:20;50.53;;;31.67;;
68188;SDS011;66299;47.514;19.218;2023-11-21T06:02:49;51.92;;;30.70;;
68188;SDS011;66299;47.514;19.218;2023-11-21T06:05:21;47.40;;;30.50;;
68188;SDS011;66299;47.514;19.218;2023-11-21T06:10:24;49.90;;;31.55;;
68188;SDS011;66299;47.514;19.218;2023-11-21T06:12:53;55.55;;;33.80;;
68188;SDS011;66299;47.514;19.218;2023-11-21T06:15:21;56.90;;;35.53;;
68188;SDS011;66299;47.514;19.218;2023-11-21T06:17:50;54.00;;;33.38;;
68188;SDS011;66299;47.514;19.218;2023-11-21T06:20:20;57.97;;;33.78;;
68188;SDS011;66299;47.514;19.218;2023-11-21T06:22:50;56.88;;;33.35;;
68188;SDS011;66299;47.514;19.218;2023-11-21T06:25:23;50.17;;;31.00;;
68188;SDS011;66299;47.514;19.218;2023-11-21T06:27:53;50.53;;;30.13;;
68188;SDS011;66299;47.514;19.218;2023-11-21T06:30:23;57.47;;;33.55;;
68188;SDS011;66299;47.514;19.218;2023-11-21T06:32:52;56.80;;;35.20;;
68188;SDS011;66299;47.514;19.218;2023-11-21T06:35:22;58.83;;;35.97;;
68188;SDS011;66299;47.514;19.218;2023-11-21T06:37:51;57.53;;;35.22;;
68188;SDS011;66299;47.514;19.218;2023-11-21T06:40:22;59.60;;;36.38;;
68188;SDS011;66299;47.514;19.218;2023-11-21T06:42:52;56.28;;;35.60;;
68188;SDS011;66299;47.514;19.218;2023-11-21T06:45:22;58.08;;;35.97;;
68188;SDS011;66299;47.514;19.218;2023-11-21T06:47:53;57.28;;;34.95;;
68188;SDS011;66299;47.514;19.218;2023-11-21T06:50:22;55.55;;;36.08;;
68188;SDS011;66299;47.514;19.218;2023-11-21T06:52:51;58.90;;;36.08;;
68188;SDS011;66299;47.514;19.218;2023-11-21T06:55:22;55.80;;;33.67;;
68188;SDS011;66299;47.514;19.218;2023-11-21T06:57:50;63.63;;;35.20;;
68188;SDS011;66299;47.514;19.218;2023-11-21T07:00:19;54.67;;;32.97;;
68188;SDS011;66299;47.514;19.218;2023-11-21T07:02:48;56.25;;;33.40;;
68188;SDS011;66299;47.514;19.218;2023-11-21T07:05:16;59.20;;;35.05;;
68188;SDS011;66299;47.514;19.218;2023-11-21T07:07:48;54.00;;;31.92;;
68188;SDS011;66299;47.514;19.218;2023-11-21T07:10:18;57.00;;;32.72;;
68188;SDS011;66299;47.514;19.218;2023-11-21T07:12:48;54.67;;;32.22;;
68188;SDS011;66299;47.514;19.218;2023-11-21T07:15:18;53.88;;;32.55;;
68188;SDS011;66299;47.514;19.218;2023-11-21T07:17:48;49.92;;;31.13;;
68188;SDS011;66299;47.514;19.218;2023-11-21T07:20:16;53.25;;;31.13;;
68188;SDS011;66299;47.514;19.218;2023-11-21T07:22:45;49.35;;;31.35;;
68188;SDS011;66299;47.514;19.218;2023-11-21T07:25:13;52.63;;;30.77;;
68188;SDS011;66299;47.514;19.218;2023-11-21T07:27:43;49.17;;;29.50;;
68188;SDS011;66299;47.514;19.218;2023-11-21T07:30:14;50.30;;;30.73;;
68188;SDS011;66299;47.514;19.218;2023-11-21T07:32:42;58.63;;;32.50;;
68188;SDS011;66299;47.514;19.218;2023-11-21T07:35:12;62.15;;;35.60;;
68188;SDS011;66299;47.514;19.218;2023-11-21T07:37:41;70.57;;;38.42;;
68188;SDS011;66299;47.514;19.218;2023-11-21T07:40:10;69.03;;;37.35;;
68188;SDS011;66299;47.514;19.218;2023-11-21T07:42:40;69.65;;;36.72;;
68188;SDS011;66299;47.514;19.218;2023-11-21T07:45:10;60.65;;;36.10;;
68188;SDS011;66299;47.514;19.218;2023-11-21T07:47:40;65.82;;;36.58;;
68188;SDS011;66299;47.514;19.218;2023-11-21T07:50:10;66.82;;;37.50;;
68188;SDS011;66299;47.514;19.218;2023-11-21T07:52:40;63.72;;;36.55;;
68188;SDS011;66299;47.514;19.218;2023-11-21T07:55:09;53.10;;;34.00;;
68188;SDS011;66299;47.514;19.218;2023-11-21T07:57:38;56.35;;;32.25;;
68188;SDS011;66299;47.514;19.218;2023-11-21T08:00:07;58.45;;;32.95;;
68188;SDS011;66299;47.514;19.218;2023-11-21T08:02:40;94.38;;;44.45;;
68188;SDS011;66299;47.514;19.218;2023-11-21T08:05:13;96.93;;;45.60;;
68188;SDS011;66299;47.514;19.218;2023-11-21T08:07:54;70.05;;;39.70;;
68188;SDS011;66299;47.514;19.218;2023-11-21T08:10:23;66.70;;;36.50;;
68188;SDS011;66299;47.514;19.218;2023-11-21T08:12:52;69.55;;;38.42;;
68188;SDS011;66299;47.514;19.218;2023-11-21T08:15:21;74.07;;;38.25;;
68188;SDS011;66299;47.514;19.218;2023-11-21T08:17:51;62.20;;;34.85;;
68188;SDS011;66299;47.514;19.218;2023-11-21T08:20:20;66.15;;;34.67;;
68188;SDS011;66299;47.514;19.218;2023-11-21T08:22:49;56.63;;;32.92;;
68188;SDS011;66299;47.514;19.218;2023-11-21T08:25:19;55.75;;;29.77;;
68188;SDS011;66299;47.514;19.218;2023-11-21T08:27:49;50.15;;;29.00;;
68188;SDS011;66299;47.514;19.218;2023-11-21T08:30:17;48.72;;;28.73;;
68188;SDS011;66299;47.514;19.218;2023-11-21T08:32:47;50.20;;;27.08;;
68188;SDS011;66299;47.514;19.218;2023-11-21T08:35:19;46.22;;;26.30;;
68188;SDS011;66299;47.514;19.218;2023-11-21T08:37:48;45.25;;;25.90;;
68188;SDS011;66299;47.514;19.218;2023-11-21T08:40:20;50.53;;;26.92;;
68188;SDS011;66299;47.514;19.218;2023-11-21T08:42:48;41.72;;;25.40;;
68188;SDS011;66299;47.514;19.218;2023-11-21T08:45:20;46.17;;;25.70;;
68188;SDS011;66299;47.514;19.218;2023-11-21T08:47:49;41.95;;;24.20;;
68188;SDS011;66299;47.514;19.218;2023-11-21T08:50:20;41.33;;;23.20;;
68188;SDS011;66299;47.514;19.218;2023-11-21T08:52:50;40.05;;;22.13;;
68188;SDS011;66299;47.514;19.218;2023-11-21T08:55:18;44.60;;;22.98;;
68188;SDS011;66299;47.514;19.218;2023-11-21T08:57:47;43.17;;;23.10;;
68188;SDS011;66299;47.514;19.218;2023-11-21T09:00:16;43.67;;;23.42;;
68188;SDS011;66299;47.514;19.218;2023-11-21T09:02:46;55.60;;;23.90;;
68188;SDS011;66299;47.514;19.218;2023-11-21T09:05:14;59.75;;;30.65;;
68188;SDS011;66299;47.514;19.218;2023-11-21T09:07:45;49.15;;;26.65;;
68188;SDS011;66299;47.514;19.218;2023-11-21T09:10:16;49.92;;;25.58;;
68188;SDS011;66299;47.514;19.218;2023-11-21T09:12:44;45.80;;;23.05;;
68188;SDS011;66299;47.514;19.218;2023-11-21T09:15:13;38.67;;;20.63;;
68188;SDS011;66299;47.514;19.218;2023-11-21T09:17:42;44.72;;;25.05;;
68188;SDS011;66299;47.514;19.218;2023-11-21T09:20:12;52.38;;;27.48;;
68188;SDS011;66299;47.514;19.218;2023-11-21T09:22:42;45.38;;;26.23;;
68188;SDS011;66299;47.514;19.218;2023-11-21T09:25:14;48.08;;;25.73;;
68188;SDS011;66299;47.514;19.218;2023-11-21T09:27:42;47.45;;;25.92;;
68188;SDS011;66299;47.514;19.218;2023-11-21T09:30:12;43.20;;;25.27;;
68188;SDS011;66299;47.514;19.218;2023-11-21T09:32:42;46.70;;;26.75;;
68188;SDS011;66299;47.514;19.218;2023-11-21T09:35:12;48.83;;;26.70;;
68188;SDS011;66299;47.514;19.218;2023-11-21T09:37:43;49.75;;;28.48;;
68188;SDS011;66299;47.514;19.218;2023-11-21T09:40:17;55.53;;;31.73;;
68188;SDS011;66299;47.514;19.218;2023-11-21T09:42:52;55.25;;;29.83;;
68188;SDS011;66299;47.514;19.218;2023-11-21T09:45:26;51.50;;;31.02;;
68188;SDS011;66299;47.514;19.218;2023-11-21T09:47:58;52.47;;;29.52;;
68188;SDS011;66299;47.514;19.218;2023-11-21T09:50:27;59.35;;;30.77;;
68188;SDS011;66299;47.514;19.218;2023-11-21T09:52:57;51.40;;;30.08;;
68188;SDS011;66299;47.514;19.218;2023-11-21T09:55:34;53.30;;;29.73;;
68188;SDS011;66299;47.514;19.218;2023-11-21T10:00:35;57.50;;;32.03;;
68188;SDS011;66299;47.514;19.218;2023-11-21T10:03:05;57.08;;;31.75;;
68188;SDS011;66299;47.514;19.218;2023-11-21T10:05:36;56.00;;;32.72;;
68188;SDS011;66299;47.514;19.218;2023-11-21T10:08:07;52.55;;;28.73;;
68188;SDS011;66299;47.514;19.218;2023-11-21T10:10:42;44.10;;;26.60;;
68188;SDS011;66299;47.514;19.218;2023-11-21T10:13:13;44.47;;;23.55;;
68188;SDS011;66299;47.514;19.218;2023-11-21T10:15:44;39.88;;;22.42;;
68188;SDS011;66299;47.514;19.218;2023-11-21T10:18:17;38.90;;;22.05;;
68188;SDS011;66299;47.514;19.218;2023-11-21T10:20:46;43.47;;;21.92;;
68188;SDS011;66299;47.514;19.218;2023-11-21T10:23:20;38.80;;;22.65;;
68188;SDS011;66299;47.514;19.218;2023-11-21T10:25:52;45.22;;;24.52;;
68188;SDS011;66299;47.514;19.218;2023-11-21T10:28:24;49.78;;;28.58;;
68188;SDS011;66299;47.514;19.218;2023-11-21T10:30:53;51.85;;;28.45;;
68188;SDS011;66299;47.514;19.218;2023-11-21T10:33:27;43.25;;;25.65;;
68188;SDS011;66299;47.514;19.218;2023-11-21T10:35:56;44.22;;;23.98;;
68188;SDS011;66299;47.514;19.218;2023-11-21T10:38:24;44.60;;;24.98;;
68188;SDS011;66299;47.514;19.218;2023-11-21T10:40:55;42.70;;;22.80;;
68188;SDS011;66299;47.514;19.218;2023-11-21T10:43:25;48.38;;;24.25;;
68188;SDS011;66299;47.514;19.218;2023-11-21T10:45:57;41.15;;;22.75;;
68188;SDS011;66299;47.514;19.218;2023-11-21T10:48:27;46.40;;;26.02;;
68188;SDS011;66299;47.514;19.218;2023-11-21T10:50:57;64.30;;;34.17;;
68188;SDS011;66299;47.514;19.218;2023-11-21T10:53:28;58.28;;;31.13;;
68188;SDS011;66299;47.514;19.218;2023-11-21T10:56:05;49.03;;;26.27;;
68188;SDS011;66299;47.514;19.218;2023-11-21T10:58:37;44.42;;;25.17;;
68188;SDS011;66299;47.514;19.218;2023-11-21T11:01:07;44.33;;;24.58;;
68188;SDS011;66299;47.514;19.218;2023-11-21T11:03:38;51.70;;;25.85;;
68188;SDS011;66299;47.514;19.218;2023-11-21T11:06:07;47.00;;;25.95;;
68188;SDS011;66299;47.514;19.218;2023-11-21T11:08:40;53.53;;;27.17;;
68188;SDS011;66299;47.514;19.218;2023-11-21T11:11:11;51.63;;;25.80;;
68188;SDS011;66299;47.514;19.218;2023-11-21T11:13:43;46.85;;;25.23;;
68188;SDS011;66299;47.514;19.218;2023-11-21T11:16:12;46.35;;;24.85;;
68188;SDS011;66299;47.514;19.218;2023-11-21T11:18:44;47.13;;;24.15;;
68188;SDS011;66299;47.514;19.218;2023-11-21T11:21:19;47.63;;;24.98;;
68188;SDS011;66299;47.514;19.218;2023-11-21T11:24:04;45.25;;;23.23;;
68188;SDS011;66299;47.514;19.218;2023-11-21T11:26:45;53.70;;;23.42;;
68188;SDS011;66299;47.514;19.218;2023-11-21T11:29:23;46.33;;;22.77;;
68188;SDS011;66299;47.514;19.218;2023-11-21T11:32:02;42.38;;;22.00;;
68188;SDS011;66299;47.514;19.218;2023-11-21T11:34:41;41.95;;;22.63;;
68188;SDS011;66299;47.514;19.218;2023-11-21T11:37:13;40.85;;;20.77;;
68188;SDS011;66299;47.514;19.218;2023-11-21T11:39:42;37.85;;;19.50;;
68188;SDS011;66299;47.514;19.218;2023-11-21T11:42:14;39.97;;;20.10;;
68188;SDS011;66299;47.514;19.218;2023-11-21T11:44:49;40.47;;;19.75;;
68188;SDS011;66299;47.514;19.218;2023-11-21T11:47:24;38.38;;;18.08;;
68188;SDS011;66299;47.514;19.218;2023-11-21T11:52:38;31.83;;;17.45;;
68188;SDS011;66299;47.514;19.218;2023-11-21T11:55:09;32.28;;;16.90;;
68188;SDS011;66299;47.514;19.218;2023-11-21T11:57:42;39.22;;;20.98;;
68188;SDS011;66299;47.514;19.218;2023-11-21T12:00:15;49.35;;;28.30;;
68188;SDS011;66299;47.514;19.218;2023-11-21T12:02:47;223.05;;;102.25;;
68188;SDS011;66299;47.514;19.218;2023-11-21T12:05:17;247.57;;;116.18;;
68188;SDS011;66299;47.514;19.218;2023-11-21T12:07:47;183.43;;;87.78;;
68188;SDS011;66299;47.514;19.218;2023-11-21T12:10:20;153.07;;;82.43;;
68188;SDS011;66299;47.514;19.218;2023-11-21T12:15:23;68.90;;;38.25;;
68188;SDS011;66299;47.514;19.218;2023-11-21T12:17:52;41.15;;;21.25;;
68188;SDS011;66299;47.514;19.218;2023-11-21T12:20:21;35.03;;;17.63;;
68188;SDS011;66299;47.514;19.218;2023-11-21T12:22:51;35.33;;;16.80;;
68188;SDS011;66299;47.514;19.218;2023-11-21T12:25:20;31.63;;;15.82;;
68188;SDS011;66299;47.514;19.218;2023-11-21T12:27:50;33.72;;;16.30;;
68188;SDS011;66299;47.514;19.218;2023-11-21T12:30:21;37.67;;;16.60;;
68188;SDS011;66299;47.514;19.218;2023-11-21T12:32:54;27.92;;;14.43;;
68188;SDS011;66299;47.514;19.218;2023-11-21T12:35:24;32.88;;;15.77;;
68188;SDS011;66299;47.514;19.218;2023-11-21T12:37:54;29.92;;;16.05;;
68188;SDS011;66299;47.514;19.218;2023-11-21T12:40:24;31.58;;;15.90;;
68188;SDS011;66299;47.514;19.218;2023-11-21T12:42:53;29.27;;;14.75;;
68188;SDS011;66299;47.514;19.218;2023-11-21T12:47:56;33.97;;;17.05;;
68188;SDS011;66299;47.514;19.218;2023-11-21T12:50:27;35.95;;;17.10;;
68188;SDS011;66299;47.514;19.218;2023-11-21T12:52:59;40.60;;;17.65;;
68188;SDS011;66299;47.514;19.218;2023-11-21T12:55:30;48.28;;;21.77;;
68188;SDS011;66299;47.514;19.218;2023-11-21T12:58:01;47.70;;;21.73;;
68188;SDS011;66299;47.514;19.218;2023-11-21T13:00:38;41.85;;;21.95;;
68188;SDS011;66299;47.514;19.218;2023-11-21T13:05:40;35.53;;;17.98;;
68188;SDS011;66299;47.514;19.218;2023-11-21T13:08:15;33.55;;;18.05;;
68188;SDS011;66299;47.514;19.218;2023-11-21T13:10:48;32.03;;;16.85;;
68188;SDS011;66299;47.514;19.218;2023-11-21T13:13:18;29.88;;;15.32;;
68188;SDS011;66299;47.514;19.218;2023-11-21T13:15:52;33.22;;;15.82;;
68188;SDS011;66299;47.514;19.218;2023-11-21T13:18:23;31.38;;;16.50;;
68188;SDS011;66299;47.514;19.218;2023-11-21T13:20:54;33.40;;;15.60;;
68188;SDS011;66299;47.514;19.218;2023-11-21T13:23:25;33.70;;;16.20;;
68188;SDS011;66299;47.514;19.218;2023-11-21T13:25:55;31.98;;;16.95;;
68188;SDS011;66299;47.514;19.218;2023-11-21T13:28:33;37.10;;;16.45;;
68188;SDS011;66299;47.514;19.218;2023-11-21T13:31:04;41.47;;;16.60;;
68188;SDS011;66299;47.514;19.218;2023-11-21T13:33:48;36.88;;;16.33;;
68188;SDS011;66299;47.514;19.218;2023-11-21T13:36:24;39.67;;;16.75;;
68188;SDS011;66299;47.514;19.218;2023-11-21T13:38:57;30.95;;;15.93;;
68188;SDS011;66299;47.514;19.218;2023-11-21T13:41:31;30.63;;;16.10;;
68188;SDS011;66299;47.514;19.218;2023-11-21T13:44:00;34.25;;;15.93;;
68188;SDS011;66299;47.514;19.218;2023-11-21T13:46:43;32.45;;;16.27;;
68188;SDS011;66299;47.514;19.218;2023-11-21T13:49:13;36.58;;;16.27;;
68188;SDS011;66299;47.514;19.218;2023-11-21T13:51:43;39.17;;;15.52;;
68188;SDS011;66299;47.514;19.218;2023-11-21T13:54:16;39.42;;;17.60;;
68188;SDS011;66299;47.514;19.218;2023-11-21T13:56:48;36.35;;;17.13;;
68188;SDS011;66299;47.514;19.218;2023-11-21T13:59:18;32.25;;;17.50;;
68188;SDS011;66299;47.514;19.218;2023-11-21T14:01:52;34.58;;;17.15;;
68188;SDS011;66299;47.514;19.218;2023-11-21T14:04:28;35.95;;;17.23;;
68188;SDS011;66299;47.514;19.218;2023-11-21T14:07:14;33.83;;;16.88;;
68188;SDS011;66299;47.514;19.218;2023-11-21T14:09:53;37.28;;;18.73;;
68188;SDS011;66299;47.514;19.218;2023-11-21T14:12:22;43.17;;;20.90;;
68188;SDS011;66299;47.514;19.218;2023-11-21T14:14:50;36.33;;;19.15;;
68188;SDS011;66299;47.514;19.218;2023-11-21T14:17:20;39.53;;;18.08;;
68188;SDS011;66299;47.514;19.218;2023-11-21T14:22:20;38.97;;;18.25;;
68188;SDS011;66299;47.514;19.218;2023-11-21T14:24:49;39.35;;;17.00;;
68188;SDS011;66299;47.514;19.218;2023-11-21T14:27:19;40.42;;;18.08;;
68188;SDS011;66299;47.514;19.218;2023-11-21T14:29:48;36.72;;;18.13;;
68188;SDS011;66299;47.514;19.218;2023-11-21T14:32:19;37.92;;;18.05;;
68188;SDS011;66299;47.514;19.218;2023-11-21T14:34:49;43.70;;;18.02;;
68188;SDS011;66299;47.514;19.218;2023-11-21T14:37:17;34.72;;;17.85;;
68188;SDS011;66299;47.514;19.218;2023-11-21T14:39:47;39.50;;;19.35;;
68188;SDS011;66299;47.514;19.218;2023-11-21T14:42:16;42.65;;;18.95;;
68188;SDS011;66299;47.514;19.218;2023-11-21T14:44:51;39.20;;;19.08;;
68188;SDS011;66299;47.514;19.218;2023-11-21T14:47:23;37.30;;;19.23;;